| time (UTC) | temp F | wind direction | speed knots | gust knots | rain 1hr in | rain 24hr in | rain mn in | humidity % | barometer mb |
| 20260509203258 | 81 | 225 | 1.7 | 2.6 | 0.00 | 0.00 | 0.00 | 40 | 1008.9 |
| 20260509202754 | 81 | 94 | 0.0 | 3.5 | 0.00 | 0.00 | 0.00 | 41 | 1008.7 |
| 20260509202250 | 80 | 171 | 1.7 | 3.5 | 0.00 | 0.00 | 0.00 | 39 | 1008.9 |
| 20260509201750 | 80 | 185 | 0.9 | 1.7 | 0.00 | 0.00 | 0.00 | 41 | 1008.9 |
| 20260509201247 | 80 | 333 | 1.7 | 1.7 | 0.00 | 0.00 | 0.00 | 45 | 1008.9 |
| 20260509200743 | 80 | 276 | 3.5 | 3.5 | 0.00 | 0.00 | 0.00 | 42 | 1008.9 |
| 20260509200244 | 79 | 191 | 0.9 | 3.5 | 0.00 | 0.00 | 0.00 | 41 | 1009.1 |
| 20260509195740 | 80 | 280 | 1.7 | 2.6 | 0.00 | 0.00 | 0.00 | 43 | 1009.3 |
| 20260509195236 | 80 | 53 | 0.0 | 2.6 | 0.00 | 0.00 | 0.00 | 46 | 1009.3 |
| 20260509194730 | 80 | 122 | 1.7 | 4.3 | 0.00 | 0.00 | 0.00 | 43 | 1009.4 |
| 20260509194227 | 80 | 147 | 1.7 | 2.6 | 0.00 | 0.00 | 0.00 | 47 | 1009.5 |
| 20260509193724 | 79 | 119 | 2.6 | 2.6 | 0.00 | 0.00 | 0.00 | 45 | 1009.5 |
| 20260509193223 | 78 | 104 | 0.0 | 1.7 | 0.00 | 0.00 | 0.00 | 49 | 1009.6 |
| 20260509192720 | 79 | 232 | 0.0 | 2.6 | 0.00 | 0.00 | 0.00 | 46 | 1009.6 |
| 20260509192215 | 79 | 57 | 0.9 | 4.3 | 0.00 | 0.00 | 0.00 | 49 | 1009.6 |
| 20260509191711 | 79 | 161 | 0.9 | 2.6 | 0.00 | 0.00 | 0.00 | 46 | 1009.8 |
| 20260509191207 | 80 | 271 | 0.0 | 2.6 | 0.00 | 0.00 | 0.00 | 48 | 1009.7 |
| 20260509190703 | 79 | 345 | 0.0 | 1.7 | 0.00 | 0.00 | 0.00 | 46 | 1009.8 |
| 20260509190201 | 77 | 138 | 0.0 | 4.3 | 0.00 | 0.00 | 0.00 | 47 | 1009.7 |
| 20260509185658 | 78 | 322 | 0.0 | 3.5 | 0.00 | 0.00 | 0.00 | 47 | 1009.8 |
| 20260509185154 | 78 | 143 | 1.7 | 3.5 | 0.00 | 0.00 | 0.00 | 47 | 1009.7 |
| 20260509184652 | 77 | 27 | 0.0 | 1.7 | 0.00 | 0.00 | 0.00 | 49 | 1009.5 |
| 20260509184149 | 77 | 92 | 1.7 | 3.5 | 0.00 | 0.00 | 0.00 | 50 | 1009.7 |
| 20260509183645 | 78 | 132 | 2.6 | 4.3 | 0.00 | 0.00 | 0.00 | 49 | 1009.6 |
| 20260509183140 | 77 | 99 | 1.7 | 1.7 | 0.00 | 0.00 | 0.00 | 53 | 1009.6 |
| 20260509182636 | 77 | 335 | 0.0 | 1.7 | 0.00 | 0.00 | 0.00 | 49 | 1009.7 |
| 20260509182134 | 77 | 269 | 0.0 | 4.3 | 0.00 | 0.00 | 0.00 | 48 | 1009.7 |
| 20260509181631 | 77 | 287 | 0.0 | 3.5 | 0.00 | 0.00 | 0.00 | 49 | 1009.5 |
| 20260509181129 | 77 | 130 | 3.5 | 4.3 | 0.00 | 0.00 | 0.00 | 51 | 1009.4 |
| 20260509180625 | 76 | 346 | 0.9 | 1.7 | 0.00 | 0.00 | 0.00 | 55 | 1009.5 |
| 20260509180122 | 75 | 64 | 4.3 | 5.2 | 0.00 | 0.00 | 0.00 | 52 | 1009.4 |
| 20260509175617 | 76 | 121 | 2.6 | 3.5 | 0.00 | 0.00 | 0.00 | 50 | 1009.8 |
| 20260509175115 | 76 | 132 | 1.7 | 3.5 | 0.00 | 0.00 | 0.00 | 51 | 1009.6 |
| 20260509174611 | 76 | 125 | 0.0 | 1.7 | 0.00 | 0.00 | 0.00 | 53 | 1009.4 |
| 20260509174106 | 75 | 265 | 1.7 | 3.5 | 0.00 | 0.00 | 0.00 | 53 | 1009.6 |
| 20260509173601 | 75 | 77 | 1.7 | 2.6 | 0.00 | 0.00 | 0.00 | 57 | 1009.4 |
| 20260509173057 | 76 | 56 | 2.6 | 3.5 | 0.00 | 0.00 | 0.00 | 54 | 1009.6 |
| 20260509172555 | 76 | 263 | 0.9 | 1.7 | 0.00 | 0.00 | 0.00 | 56 | 1009.4 |
| 20260509172050 | 75 | 106 | 0.9 | 2.6 | 0.00 | 0.00 | 0.00 | 54 | 1009.5 |
| 20260509171546 | 74 | 192 | 1.7 | 3.5 | 0.00 | 0.00 | 0.00 | 55 | 1009.8 |
| 20260509171043 | 74 | 117 | 2.6 | 5.2 | 0.00 | 0.00 | 0.00 | 58 | 1009.6 |
| 20260509170539 | 74 | 333 | 0.0 | 2.6 | 0.00 | 0.00 | 0.00 | 58 | 1009.8 |
| 20260509170035 | 74 | 53 | 1.7 | 3.5 | 0.00 | 0.00 | 0.00 | 57 | 1009.8 |
| 20260509165534 | 74 | 151 | 0.9 | 3.5 | 0.00 | 0.00 | 0.00 | 57 | 1009.8 |
| 20260509165029 | 73 | 82 | 2.6 | 3.5 | 0.00 | 0.00 | 0.00 | 57 | 1010.0 |
| 20260509164526 | 74 | 87 | 0.9 | 2.6 | 0.00 | 0.00 | 0.00 | 55 | 1009.9 |
| 20260509164021 | 74 | 251 | 0.0 | 1.7 | 0.00 | 0.00 | 0.00 | 53 | 1009.9 |
| 20260509163519 | 75 | 192 | 2.6 | 3.5 | 0.00 | 0.00 | 0.00 | 55 | 1009.9 |
| 20260509163014 | 74 | 85 | 0.9 | 1.7 | 0.00 | 0.00 | 0.00 | 57 | 1009.9 |
| 20260509162512 | 74 | 123 | 3.5 | 3.5 | 0.00 | 0.00 | 0.00 | 59 | 1010.0 |
| 20260509162008 | 74 | 173 | 0.0 | 2.6 | 0.00 | 0.00 | 0.00 | 59 | 1010.1 |
| 20260509161505 | 73 | 276 | 0.0 | 2.6 | 0.00 | 0.00 | 0.00 | 62 | 1010.1 |
| 20260509160959 | 73 | 254 | 1.7 | 3.5 | 0.00 | 0.00 | 0.00 | 58 | 1010.2 |
| 20260509160455 | 73 | 52 | 0.9 | 1.7 | 0.00 | 0.00 | 0.00 | 59 | 1010.1 |
| 20260509155956 | 72 | 159 | 0.9 | 2.6 | 0.00 | 0.00 | 0.00 | 65 | 1010.1 |
| 20260509155453 | 72 | 120 | 2.6 | 3.5 | 0.00 | 0.00 | 0.00 | 62 | 1009.9 |
| 20260509154949 | 73 | 239 | 3.5 | 4.3 | 0.00 | 0.00 | 0.00 | 61 | 1009.9 |
| 20260509154445 | 72 | 163 | 1.7 | 2.6 | 0.00 | 0.00 | 0.00 | 68 | 1009.9 |
| 20260509153943 | 71 | 248 | 1.7 | 2.6 | 0.00 | 0.00 | 0.00 | 63 | 1009.8 |
| 20260509153439 | 71 | 262 | 0.9 | 1.7 | 0.00 | 0.00 | 0.00 | 64 | 1009.7 |
| 20260509152937 | 70 | 266 | 0.9 | 2.6 | 0.00 | 0.00 | 0.00 | 67 | 1009.8 |
| 20260509152432 | 69 | 200 | 1.7 | 3.5 | 0.00 | 0.00 | 0.00 | 66 | 1009.8 |
| 20260509151930 | 70 | 213 | 1.7 | 3.5 | 0.00 | 0.00 | 0.00 | 64 | 1009.8 |
| 20260509151426 | 70 | 274 | 0.9 | 1.7 | 0.00 | 0.00 | 0.00 | 67 | 1009.7 |
| 20260509150924 | 70 | 196 | 2.6 | 5.2 | 0.00 | 0.00 | 0.00 | 65 | 1009.7 |
| 20260509150421 | 69 | 46 | 1.7 | 2.6 | 0.00 | 0.00 | 0.00 | 70 | 1009.6 |
| 20260509145919 | 69 | 285 | 1.7 | 5.2 | 0.00 | 0.00 | 0.00 | 68 | 1009.4 |
| 20260509145419 | 69 | 212 | 0.0 | 2.6 | 0.00 | 0.00 | 0.00 | 69 | 1009.4 |
| 20260509144915 | 69 | 199 | 2.6 | 3.5 | 0.00 | 0.00 | 0.00 | 68 | 1009.6 |
| 20260509144412 | 69 | 152 | 0.0 | 4.3 | 0.00 | 0.00 | 0.00 | 69 | 1009.5 |
| 20260509143909 | 68 | 213 | 2.6 | 4.3 | 0.00 | 0.00 | 0.00 | 69 | 1009.4 |
| 20260509143407 | 67 | 358 | 0.9 | 3.5 | 0.00 | 0.00 | 0.00 | 71 | 1009.7 |
| 20260509142903 | 68 | 29 | 0.0 | 4.3 | 0.00 | 0.00 | 0.00 | 71 | 1009.9 |
| 20260509142359 | 66 | 212 | 2.6 | 3.5 | 0.00 | 0.00 | 0.00 | 71 | 1009.6 |
| 20260509141855 | 67 | 87 | 0.9 | 4.3 | 0.00 | 0.00 | 0.00 | 71 | 1009.6 |
| 20260509141352 | 66 | 175 | 0.0 | 5.2 | 0.00 | 0.00 | 0.00 | 73 | 1009.5 |
| 20260509140848 | 67 | 243 | 0.0 | 3.5 | 0.00 | 0.00 | 0.00 | 72 | 1009.5 |
| 20260509140345 | 67 | 85 | 0.9 | 2.6 | 0.00 | 0.00 | 0.00 | 70 | 1009.5 |
| 20260509135843 | 67 | 95 | 2.6 | 2.6 | 0.00 | 0.00 | 0.00 | 73 | 1009.5 |
| 20260509135341 | 67 | 196 | 0.0 | 3.5 | 0.00 | 0.00 | 0.00 | 72 | 1009.5 |
| 20260509134838 | 67 | 236 | 0.9 | 2.6 | 0.00 | 0.00 | 0.00 | 72 | 1009.3 |
| 20260509134335 | 68 | 200 | 0.0 | 1.7 | 0.00 | 0.00 | 0.00 | 69 | 1009.4 |
| 20260509133831 | 67 | 129 | 0.0 | 2.6 | 0.00 | 0.00 | 0.00 | 70 | 1009.3 |
| 20260509133328 | 67 | 122 | 0.9 | 4.3 | 0.00 | 0.00 | 0.00 | 69 | 1009.2 |
| 20260509132828 | 67 | 183 | 0.0 | 2.6 | 0.00 | 0.00 | 0.00 | 70 | 1009.4 |
| 20260509132326 | 67 | 118 | 0.0 | 1.7 | 0.00 | 0.00 | 0.00 | 70 | 1009.5 |
| 20260509131822 | 66 | 102 | 0.9 | 1.7 | 0.00 | 0.00 | 0.00 | 71 | 1009.2 |
| 20260509131319 | 66 | 117 | 0.9 | 2.6 | 0.00 | 0.00 | 0.00 | 72 | 1009.1 |
| 20260509130815 | 65 | 42 | 0.9 | 1.7 | 0.00 | 0.00 | 0.00 | 74 | 1009.2 |
| 20260509130311 | 64 | 119 | 3.5 | 4.3 | 0.00 | 0.00 | 0.00 | 75 | 1009.2 |
| 20260509125808 | 63 | 125 | 0.9 | 1.7 | 0.00 | 0.00 | 0.00 | 76 | 1009.2 |
| 20260509125307 | 61 | 129 | 0.9 | 5.2 | 0.00 | 0.00 | 0.00 | 81 | 1009.3 |
| 20260509124801 | 60 | 100 | 1.7 | 2.6 | 0.00 | 0.00 | 0.00 | 83 | 1009.4 |
| 20260509124257 | 60 | 111 | 0.9 | 4.3 | 0.00 | 0.00 | 0.00 | 83 | 1009.4 |
| 20260509123755 | 60 | 4 | 1.7 | 4.3 | 0.00 | 0.00 | 0.00 | 83 | 1009.7 |
| 20260509123253 | 59 | 108 | 0.9 | 1.7 | 0.00 | 0.00 | 0.00 | 83 | 1009.5 |
| 20260509122748 | 59 | 111 | 0.9 | 4.3 | 0.00 | 0.00 | 0.00 | 83 | 1009.5 |
| 20260509122245 | 59 | 72 | 0.9 | 1.7 | 0.00 | 0.00 | 0.00 | 84 | 1009.4 |
| 20260509121742 | 59 | 193 | 0.0 | 2.6 | 0.00 | 0.00 | 0.00 | 84 | 1009.2 |
| 20260509121239 | 59 | 104 | 0.9 | 2.6 | 0.00 | 0.00 | 0.00 | 84 | 1009.1 |
| 20260509120737 | 58 | 96 | 1.7 | 1.7 | 0.00 | 0.00 | 0.00 | 84 | 1009.1 |
| 20260509120235 | 58 | 1 | 0.0 | 4.3 | 0.00 | 0.00 | 0.00 | 84 | 1008.9 |
| 20260509115733 | 58 | 98 | 1.7 | 3.5 | 0.00 | 0.00 | 0.00 | 83 | 1008.8 |
| 20260509115230 | 58 | 112 | 0.9 | 1.7 | 0.00 | 0.00 | 0.00 | 82 | 1008.6 |
| 20260509114728 | 59 | 87 | 2.6 | 2.6 | 0.00 | 0.00 | 0.00 | 82 | 1008.4 |
| 20260509114226 | 58 | 91 | 1.7 | 2.6 | 0.00 | 0.00 | 0.00 | 83 | 1008.3 |
| 20260509113725 | 57 | 88 | 1.7 | 2.6 | 0.00 | 0.00 | 0.00 | 85 | 1008.5 |
| 20260509113221 | 57 | 124 | 1.7 | 3.5 | 0.00 | 0.00 | 0.00 | 84 | 1008.6 |
| 20260509112718 | 57 | 101 | 1.7 | 4.3 | 0.00 | 0.00 | 0.00 | 85 | 1008.4 |
| 20260509112215 | 56 | 92 | 1.7 | 2.6 | 0.00 | 0.00 | 0.00 | 86 | 1008.5 |
| 20260509111712 | 56 | 97 | 0.9 | 1.7 | 0.00 | 0.00 | 0.00 | 86 | 1008.5 |
| 20260509111209 | 56 | 74 | 1.7 | 2.6 | 0.00 | 0.00 | 0.00 | 86 | 1008.4 |
| 20260509110707 | 56 | 95 | 1.7 | 2.6 | 0.00 | 0.00 | 0.00 | 85 | 1008.4 |
| 20260509110203 | 56 | 92 | 1.7 | 2.6 | 0.00 | 0.00 | 0.00 | 85 | 1008.4 |
| 20260509105701 | 56 | 74 | 1.7 | 2.6 | 0.00 | 0.00 | 0.00 | 85 | 1008.3 |
| 20260509105158 | 57 | 88 | 0.0 | 2.6 | 0.00 | 0.00 | 0.00 | 84 | 1008.4 |
| 20260509104655 | 57 | 80 | 2.6 | 4.3 | 0.00 | 0.00 | 0.00 | 84 | 1008.2 |
| 20260509104152 | 57 | 70 | 1.7 | 3.5 | 0.00 | 0.00 | 0.00 | 84 | 1008.1 |
| 20260509103650 | 57 | 83 | 0.9 | 1.7 | 0.00 | 0.00 | 0.00 | 84 | 1008.3 |
| 20260509103148 | 57 | 115 | 0.9 | 3.5 | 0.00 | 0.00 | 0.00 | 83 | 1008.3 |
| 20260509102645 | 57 | 82 | 1.7 | 2.6 | 0.00 | 0.00 | 0.00 | 83 | 1008.1 |
| 20260509102142 | 57 | 86 | 1.7 | 3.5 | 0.00 | 0.00 | 0.00 | 82 | 1008.2 |
| 20260509101638 | 57 | 105 | 1.7 | 4.3 | 0.00 | 0.00 | 0.00 | 82 | 1008.1 |
| 20260509101135 | 57 | 125 | 1.7 | 3.5 | 0.00 | 0.00 | 0.00 | 82 | 1008.4 |
| 20260509100632 | 57 | 108 | 1.7 | 2.6 | 0.00 | 0.00 | 0.00 | 82 | 1008.5 |
| 20260509100130 | 57 | 94 | 1.7 | 2.6 | 0.00 | 0.00 | 0.00 | 82 | 1008.7 |
| 20260509095626 | 57 | 120 | 2.6 | 3.5 | 0.00 | 0.00 | 0.00 | 82 | 1008.7 |
| 20260509095124 | 57 | 88 | 1.7 | 2.6 | 0.00 | 0.00 | 0.00 | 82 | 1008.8 |
| 20260509094619 | 57 | 130 | 0.9 | 2.6 | 0.00 | 0.00 | 0.00 | 81 | 1008.8 |
| 20260509094117 | 57 | 93 | 0.9 | 1.7 | 0.00 | 0.00 | 0.00 | 81 | 1008.7 |
| 20260509093615 | 58 | 59 | 1.7 | 1.7 | 0.00 | 0.00 | 0.00 | 80 | 1008.9 |
| 20260509093112 | 58 | 94 | 1.7 | 2.6 | 0.00 | 0.00 | 0.00 | 79 | 1008.9 |
| 20260509092610 | 58 | 86 | 0.9 | 0.9 | 0.00 | 0.00 | 0.00 | 80 | 1009.1 |
| 20260509092108 | 58 | 45 | 1.7 | 1.7 | 0.00 | 0.00 | 0.00 | 79 | 1008.8 |
| 20260509091606 | 59 | 88 | 1.7 | 1.7 | 0.00 | 0.00 | 0.00 | 78 | 1008.8 |
| 20260509091102 | 59 | 67 | 1.7 | 1.7 | 0.00 | 0.00 | 0.00 | 79 | 1008.9 |
| 20260509090559 | 59 | 94 | 1.7 | 1.7 | 0.00 | 0.00 | 0.00 | 78 | 1008.9 |
| 20260509090057 | 59 | 104 | 1.7 | 3.5 | 0.00 | 0.00 | 0.00 | 78 | 1008.8 |
| 20260509085554 | 58 | 80 | 1.7 | 2.6 | 0.00 | 0.00 | 0.00 | 78 | 1008.9 |
| 20260509085050 | 59 | 95 | 0.0 | 1.7 | 0.00 | 0.00 | 0.00 | 78 | 1008.7 |
| 20260509084547 | 59 | 82 | 2.6 | 2.6 | 0.00 | 0.00 | 0.00 | 77 | 1008.6 |
| 20260509084044 | 59 | 131 | 0.0 | 3.5 | 0.00 | 0.00 | 0.00 | 77 | 1009.0 |
| 20260509083542 | 59 | 75 | 1.7 | 1.7 | 0.00 | 0.00 | 0.00 | 78 | 1009.1 |
| 20260509083038 | 59 | 107 | 0.9 | 2.6 | 0.00 | 0.00 | 0.00 | 77 | 1009.0 |
| 20260509082536 | 59 | 89 | 1.7 | 1.7 | 0.00 | 0.00 | 0.00 | 77 | 1008.9 |
| 20260509082033 | 59 | 106 | 2.6 | 3.5 | 0.00 | 0.00 | 0.00 | 77 | 1008.9 |
| 20260509081530 | 59 | 60 | 0.0 | 1.7 | 0.00 | 0.00 | 0.00 | 77 | 1009.1 |
| 20260509081026 | 59 | 65 | 0.0 | 1.7 | 0.00 | 0.00 | 0.00 | 77 | 1008.7 |
| 20260509080525 | 59 | 87 | 0.9 | 2.6 | 0.00 | 0.00 | 0.00 | 77 | 1008.8 |
| 20260509080022 | 59 | 84 | 0.9 | 2.6 | 0.00 | 0.00 | 0.00 | 77 | 1008.9 |
| 20260509075519 | 59 | 121 | 3.5 | 3.5 | 0.00 | 0.00 | 0.00 | 77 | 1008.7 |
| 20260509075017 | 59 | 97 | 1.7 | 1.7 | 0.00 | 0.00 | 0.00 | 78 | 1008.8 |
| 20260509074514 | 59 | 87 | 0.9 | 2.6 | 0.00 | 0.00 | 0.00 | 78 | 1008.7 |
| 20260509074011 | 59 | 75 | 1.7 | 1.7 | 0.00 | 0.00 | 0.00 | 78 | 1008.8 |
| 20260509073507 | 59 | 81 | 1.7 | 2.6 | 0.00 | 0.00 | 0.00 | 77 | 1008.8 |
| 20260509073004 | 59 | 50 | 0.9 | 1.7 | 0.00 | 0.00 | 0.00 | 77 | 1008.9 |
| 20260509072500 | 59 | 97 | 1.7 | 3.5 | 0.00 | 0.00 | 0.00 | 76 | 1008.7 |
| 20260509071957 | 59 | 87 | 0.9 | 1.7 | 0.00 | 0.00 | 0.00 | 76 | 1008.6 |
| 20260509071453 | 59 | 88 | 0.9 | 1.7 | 0.00 | 0.00 | 0.00 | 76 | 1008.5 |
| 20260509070952 | 59 | 93 | 0.9 | 2.6 | 0.00 | 0.00 | 0.00 | 76 | 1008.7 |
| 20260509070448 | 59 | 94 | 0.9 | 1.7 | 0.00 | 0.00 | 0.00 | 76 | 1008.8 |
| 20260509065943 | 59 | 99 | 1.7 | 1.7 | 0.00 | 0.00 | 0.00 | 76 | 1008.6 |
| 20260509065440 | 59 | 69 | 1.7 | 2.6 | 0.00 | 0.00 | 0.00 | 75 | 1008.8 |
| 20260509064936 | 59 | 93 | 1.7 | 1.7 | 0.00 | 0.00 | 0.00 | 75 | 1009.2 |
| 20260509064434 | 59 | 86 | 1.7 | 1.7 | 0.00 | 0.00 | 0.00 | 75 | 1008.9 |
| 20260509063932 | 59 | 103 | 3.5 | 3.5 | 0.00 | 0.00 | 0.00 | 75 | 1009.0 |
| 20260509063427 | 59 | 89 | 0.9 | 1.7 | 0.00 | 0.00 | 0.00 | 75 | 1009.0 |
| 20260509062924 | 59 | 102 | 0.9 | 1.7 | 0.00 | 0.00 | 0.00 | 76 | 1009.2 |
| 20260509062422 | 59 | 103 | 0.9 | 1.7 | 0.00 | 0.00 | 0.00 | 75 | 1009.4 |
| 20260509061919 | 59 | 112 | 0.9 | 5.2 | 0.00 | 0.00 | 0.00 | 75 | 1009.3 |
| 20260509061417 | 59 | 88 | 0.9 | 1.7 | 0.00 | 0.00 | 0.00 | 75 | 1009.2 |
| 20260509060913 | 59 | 102 | 0.0 | 1.7 | 0.00 | 0.00 | 0.00 | 74 | 1009.4 |
| 20260509060411 | 59 | 66 | 0.0 | 1.7 | 0.00 | 0.00 | 0.00 | 73 | 1009.6 |
| 20260509055905 | 59 | 84 | 1.7 | 2.6 | 0.00 | 0.00 | 0.00 | 71 | 1009.5 |
| 20260509055401 | 60 | 78 | 1.7 | 1.7 | 0.00 | 0.00 | 0.00 | 71 | 1009.6 |
| 20260509054858 | 60 | 88 | 1.7 | 1.7 | 0.00 | 0.00 | 0.00 | 70 | 1009.6 |
| 20260509054355 | 60 | 151 | 1.7 | 3.5 | 0.00 | 0.00 | 0.00 | 69 | 1009.6 |
| 20260509053853 | 60 | 95 | 1.7 | 3.5 | 0.00 | 0.00 | 0.00 | 69 | 1009.8 |
| 20260509053350 | 60 | 98 | 1.7 | 1.7 | 0.00 | 0.00 | 0.00 | 68 | 1009.8 |
| 20260509052848 | 61 | 77 | 1.7 | 2.6 | 0.00 | 0.00 | 0.00 | 68 | 1009.9 |
| 20260509052345 | 60 | 120 | 1.7 | 6.1 | 0.00 | 0.00 | 0.00 | 67 | 1009.5 |
| 20260509051843 | 61 | 39 | 1.7 | 2.6 | 0.00 | 0.00 | 0.00 | 67 | 1009.6 |
| 20260509051341 | 61 | 96 | 1.7 | 1.7 | 0.00 | 0.00 | 0.00 | 67 | 1009.6 |
| 20260509050837 | 61 | 117 | 2.6 | 3.5 | 0.00 | 0.00 | 0.00 | 66 | 1009.9 |
| 20260509050334 | 61 | 52 | 1.7 | 2.6 | 0.00 | 0.00 | 0.00 | 66 | 1009.8 |
| 20260509045831 | 61 | 26 | 0.0 | 1.7 | 0.00 | 0.00 | 0.00 | 65 | 1009.6 |
| 20260509045328 | 61 | 107 | 3.5 | 3.5 | 0.00 | 0.00 | 0.00 | 65 | 1009.6 |
| 20260509044825 | 61 | 89 | 0.0 | 2.6 | 0.00 | 0.00 | 0.00 | 65 | 1009.7 |
| 20260509044323 | 61 | 94 | 0.9 | 2.6 | 0.00 | 0.00 | 0.00 | 64 | 1009.6 |
| 20260509043819 | 61 | 115 | 0.9 | 1.7 | 0.00 | 0.00 | 0.00 | 63 | 1009.4 |
| 20260509043315 | 61 | 88 | 1.7 | 1.7 | 0.00 | 0.00 | 0.00 | 63 | 1009.6 |
| 20260509042811 | 61 | 82 | 1.7 | 2.6 | 0.00 | 0.00 | 0.00 | 62 | 1009.6 |
| 20260509042308 | 62 | 97 | 1.7 | 1.7 | 0.00 | 0.00 | 0.00 | 61 | 1009.6 |
| 20260509041804 | 61 | 109 | 1.7 | 3.5 | 0.00 | 0.00 | 0.00 | 61 | 1009.6 |
| 20260509041302 | 61 | 89 | 0.9 | 1.7 | 0.00 | 0.00 | 0.00 | 62 | 1009.6 |
| 20260509040800 | 61 | 85 | 1.7 | 2.6 | 0.00 | 0.00 | 0.00 | 61 | 1009.9 |
| 20260509040257 | 62 | 79 | 1.7 | 2.6 | 0.00 | 0.00 | 0.00 | 60 | 1009.6 |
| 20260509035754 | 62 | 94 | 1.7 | 2.6 | 0.00 | 0.00 | 0.00 | 60 | 1009.7 |
| 20260509035251 | 62 | 79 | 1.7 | 2.6 | 0.00 | 0.00 | 0.00 | 59 | 1009.6 |
| 20260509034747 | 62 | 86 | 1.7 | 3.5 | 0.00 | 0.00 | 0.00 | 58 | 1009.7 |
| 20260509034245 | 63 | 37 | 1.7 | 1.7 | 0.00 | 0.00 | 0.00 | 58 | 1009.8 |
| 20260509033742 | 63 | 87 | 0.9 | 1.7 | 0.00 | 0.00 | 0.00 | 57 | 1009.8 |
| 20260509033239 | 63 | 93 | 1.7 | 1.7 | 0.00 | 0.00 | 0.00 | 57 | 1009.8 |
| 20260509032736 | 64 | 64 | 1.7 | 1.7 | 0.00 | 0.00 | 0.00 | 56 | 1009.8 |
| 20260509032233 | 64 | 104 | 0.9 | 2.6 | 0.00 | 0.00 | 0.00 | 55 | 1009.9 |
| 20260509031730 | 64 | 89 | 1.7 | 3.5 | 0.00 | 0.00 | 0.00 | 54 | 1009.8 |
| 20260509031228 | 64 | 93 | 0.9 | 1.7 | 0.00 | 0.00 | 0.00 | 55 | 1009.9 |
| 20260509030726 | 64 | 103 | 0.9 | 1.7 | 0.00 | 0.00 | 0.00 | 54 | 1009.9 |
| 20260509030223 | 65 | 94 | 1.7 | 3.5 | 0.00 | 0.00 | 0.00 | 53 | 1009.7 |
| 20260509025719 | 65 | 117 | 0.9 | 2.6 | 0.00 | 0.00 | 0.00 | 52 | 1009.7 |
| 20260509025215 | 65 | 134 | 0.0 | 3.5 | 0.00 | 0.00 | 0.00 | 52 | 1009.9 |
| 20260509024710 | 65 | 121 | 1.7 | 3.5 | 0.00 | 0.00 | 0.00 | 51 | 1009.7 |
| 20260509024206 | 66 | 108 | 1.7 | 5.2 | 0.00 | 0.00 | 0.00 | 51 | 1009.7 |
| 20260509023704 | 66 | 107 | 1.7 | 4.3 | 0.00 | 0.00 | 0.00 | 51 | 1009.7 |
| 20260509023201 | 66 | 100 | 1.7 | 4.3 | 0.00 | 0.00 | 0.00 | 50 | 1009.8 |
| 20260509022657 | 66 | 92 | 1.7 | 3.5 | 0.00 | 0.00 | 0.00 | 49 | 1009.7 |
| 20260509022155 | 66 | 122 | 1.7 | 4.3 | 0.00 | 0.00 | 0.00 | 49 | 1009.8 |
| 20260509021652 | 66 | 99 | 0.0 | 2.6 | 0.00 | 0.00 | 0.00 | 50 | 1009.9 |
| 20260509021149 | 67 | 107 | 1.7 | 4.3 | 0.00 | 0.00 | 0.00 | 48 | 1009.8 |
| 20260509020648 | 67 | 143 | 1.7 | 3.5 | 0.00 | 0.00 | 0.00 | 48 | 1009.8 |
| 20260509020144 | 67 | 142 | 1.7 | 5.2 | 0.00 | 0.00 | 0.00 | 48 | 1009.8 |
| 20260509015643 | 67 | 184 | 1.7 | 3.5 | 0.00 | 0.00 | 0.00 | 47 | 1009.7 |
| 20260509015140 | 67 | 100 | 4.3 | 7.0 | 0.00 | 0.00 | 0.00 | 47 | 1009.7 |
| 20260509014636 | 67 | 143 | 2.6 | 3.5 | 0.00 | 0.00 | 0.00 | 47 | 1009.6 |
| 20260509014133 | 66 | 151 | 1.7 | 4.3 | 0.00 | 0.00 | 0.00 | 48 | 1009.5 |
| 20260509013630 | 66 | 92 | 1.7 | 1.7 | 0.00 | 0.00 | 0.00 | 48 | 1009.7 |
| 20260509013125 | 66 | 83 | 1.7 | 1.7 | 0.00 | 0.00 | 0.00 | 48 | 1009.7 |
| 20260509012622 | 66 | 72 | 1.7 | 4.3 | 0.00 | 0.00 | 0.00 | 47 | 1009.5 |
| 20260509012119 | 66 | 95 | 1.7 | 2.6 | 0.00 | 0.00 | 0.00 | 48 | 1009.5 |
| 20260509011617 | 65 | 118 | 2.6 | 3.5 | 0.00 | 0.00 | 0.00 | 48 | 1009.5 |
| 20260509011114 | 65 | 64 | 2.6 | 2.6 | 0.00 | 0.00 | 0.00 | 50 | 1009.5 |
| 20260509010612 | 65 | 83 | 1.7 | 2.6 | 0.00 | 0.00 | 0.00 | 49 | 1009.5 |
| 20260509010108 | 66 | 86 | 1.7 | 2.6 | 0.00 | 0.00 | 0.00 | 48 | 1009.5 |
| 20260509005606 | 66 | 92 | 1.7 | 2.6 | 0.00 | 0.00 | 0.00 | 47 | 1009.7 |
| 20260509005101 | 67 | 88 | 1.7 | 2.6 | 0.00 | 0.00 | 0.00 | 46 | 1009.3 |
| 20260509004558 | 68 | 66 | 1.7 | 1.7 | 0.00 | 0.00 | 0.00 | 42 | 1009.7 |
| 20260509004055 | 68 | 89 | 0.0 | 1.7 | 0.00 | 0.00 | 0.00 | 42 | 1009.6 |
| 20260509003553 | 69 | 77 | 1.7 | 1.7 | 0.00 | 0.00 | 0.00 | 40 | 1009.5 |
| 20260509003050 | 69 | 108 | 1.7 | 2.6 | 0.00 | 0.00 | 0.00 | 41 | 1009.6 |
| 20260509002548 | 70 | 84 | 1.7 | 2.6 | 0.00 | 0.00 | 0.00 | 39 | 1009.7 |
| 20260509002045 | 71 | 106 | 2.6 | 2.6 | 0.00 | 0.00 | 0.00 | 37 | 1009.6 |
| 20260509001542 | 71 | 92 | 1.7 | 2.6 | 0.00 | 0.00 | 0.00 | 38 | 1009.5 |
| 20260509001038 | 72 | 107 | 2.6 | 3.5 | 0.00 | 0.00 | 0.00 | 37 | 1009.8 |
| 20260509000537 | 72 | 111 | 2.6 | 3.5 | 0.00 | 0.00 | 0.00 | 36 | 1009.7 |
| 20260509000032 | 72 | 79 | 0.0 | 1.7 | 0.00 | 0.00 | 0.00 | 36 | 1009.6 |
| 20260508235530 | 73 | 112 | 1.7 | 3.5 | 0.00 | 0.00 | 0.00 | 35 | 1009.6 |
| 20260508235026 | 73 | 172 | 2.6 | 6.1 | 0.00 | 0.00 | 0.00 | 35 | 1009.6 |
| 20260508234524 | 73 | 144 | 0.9 | 3.5 | 0.00 | 0.00 | 0.00 | 34 | 1009.7 |
| 20260508234021 | 74 | 105 | 2.6 | 7.8 | 0.00 | 0.00 | 0.00 | 34 | 1009.7 |
| 20260508233520 | 75 | 108 | 1.7 | 3.5 | 0.00 | 0.00 | 0.00 | 34 | 1009.8 |
| 20260508233017 | 75 | 123 | 0.9 | 5.2 | 0.00 | 0.00 | 0.00 | 31 | 1009.9 |
| 20260508232514 | 75 | 71 | 1.7 | 3.5 | 0.00 | 0.00 | 0.00 | 31 | 1009.9 |
| 20260508232011 | 75 | 114 | 1.7 | 3.5 | 0.00 | 0.00 | 0.00 | 30 | 1010.0 |
| 20260508231508 | 76 | 193 | 0.0 | 3.5 | 0.00 | 0.00 | 0.00 | 31 | 1010.0 |
| 20260508231005 | 76 | 89 | 2.6 | 5.2 | 0.00 | 0.00 | 0.00 | 31 | 1009.9 |
| 20260508230502 | 76 | 128 | 3.5 | 4.3 | 0.00 | 0.00 | 0.00 | 29 | 1009.9 |
| 20260508225959 | 76 | 182 | 1.7 | 1.7 | 0.00 | 0.00 | 0.00 | 31 | 1009.9 |
| 20260508225456 | 75 | 118 | 0.9 | 3.5 | 0.00 | 0.00 | 0.00 | 29 | 1010.0 |
| 20260508224953 | 75 | 80 | 1.7 | 4.3 | 0.00 | 0.00 | 0.00 | 30 | 1010.0 |
| 20260508224450 | 75 | 123 | 3.5 | 3.5 | 0.00 | 0.00 | 0.00 | 30 | 1010.0 |
| 20260508223948 | 75 | 150 | 3.5 | 4.3 | 0.00 | 0.00 | 0.00 | 29 | 1010.1 |
| 20260508223445 | 76 | 144 | 0.9 | 3.5 | 0.00 | 0.00 | 0.00 | 29 | 1010.1 |
| 20260508222942 | 77 | 95 | 0.9 | 3.5 | 0.00 | 0.00 | 0.00 | 31 | 1010.2 |
| 20260508222440 | 77 | 17 | 1.7 | 3.5 | 0.00 | 0.00 | 0.00 | 29 | 1010.0 |
| 20260508221936 | 77 | 92 | 2.6 | 3.5 | 0.00 | 0.00 | 0.00 | 30 | 1010.3 |
| 20260508221432 | 77 | 125 | 3.5 | 3.5 | 0.00 | 0.00 | 0.00 | 28 | 1010.1 |
| 20260508220929 | 76 | 114 | 2.6 | 2.6 | 0.00 | 0.00 | 0.00 | 30 | 1010.3 |
| 20260508220425 | 77 | 134 | 0.0 | 6.1 | 0.00 | 0.00 | 0.00 | 29 | 1010.3 |
| 20260508215921 | 78 | 317 | 1.7 | 2.6 | 0.00 | 0.00 | 0.00 | 28 | 1010.3 |
| 20260508215419 | 77 | 121 | 0.9 | 2.6 | 0.00 | 0.00 | 0.00 | 29 | 1010.5 |
| 20260508214915 | 76 | 167 | 2.6 | 5.2 | 0.00 | 0.00 | 0.00 | 29 | 1010.2 |
| 20260508214413 | 76 | 128 | 3.5 | 4.3 | 0.00 | 0.00 | 0.00 | 28 | 1010.5 |
| 20260508213908 | 77 | 204 | 1.7 | 3.5 | 0.00 | 0.00 | 0.00 | 30 | 1010.5 |
| 20260508213406 | 77 | 286 | 0.0 | 5.2 | 0.00 | 0.00 | 0.00 | 30 | 1010.6 |
| 20260508212902 | 77 | 180 | 0.0 | 6.1 | 0.00 | 0.00 | 0.00 | 29 | 1010.3 |
| 20260508212358 | 78 | 156 | 0.9 | 7.0 | 0.00 | 0.00 | 0.00 | 30 | 1010.5 |
| 20260508211854 | 78 | 118 | 0.9 | 1.7 | 0.00 | 0.00 | 0.00 | 30 | 1010.3 |
| 20260508211350 | 77 | 125 | 2.6 | 3.5 | 0.00 | 0.00 | 0.00 | 30 | 1010.3 |
| 20260508210848 | 77 | 80 | 1.7 | 3.5 | 0.00 | 0.00 | 0.00 | 29 | 1010.7 |
| 20260508210344 | 77 | 138 | 1.7 | 4.3 | 0.00 | 0.00 | 0.00 | 31 | 1010.6 |
| 20260508205841 | 77 | 30 | 0.0 | 4.3 | 0.00 | 0.00 | 0.00 | 30 | 1010.7 |
| 20260508205337 | 78 | 128 | 4.3 | 5.2 | 0.00 | 0.00 | 0.00 | 30 | 1010.9 |
| 20260508204833 | 78 | 94 | 0.9 | 1.7 | 0.00 | 0.00 | 0.00 | 32 | 1010.9 |
| 20260508204331 | 77 | 334 | 0.0 | 1.7 | 0.00 | 0.00 | 0.00 | 33 | 1010.8 |
| 20260508203827 | 76 | 284 | 0.0 | 1.7 | 0.00 | 0.00 | 0.00 | 34 | 1010.9 |